createdAt,value
2018-09-02T00:01:40.151Z,12.73
2018-09-02T00:04:10.130Z,12.71
2018-09-02T00:06:40.088Z,13.00
2018-09-02T00:09:09.953Z,13.25
2018-09-02T00:11:39.941Z,13.36
2018-09-02T00:14:10.215Z,13.11
2018-09-02T00:16:42.354Z,13.18
2018-09-02T00:19:13.157Z,12.97
2018-09-02T00:21:43.129Z,12.38
2018-09-02T00:24:13.394Z,12.46
2018-09-02T00:26:43.420Z,12.42
2018-09-02T00:29:13.503Z,12.40
2018-09-02T00:31:43.500Z,12.40
2018-09-02T00:34:13.560Z,12.66
2018-09-02T00:36:43.517Z,12.93
2018-09-02T00:39:13.416Z,13.00
2018-09-02T00:41:43.796Z,13.06
2018-09-02T00:44:14.470Z,12.93
2018-09-02T00:46:44.524Z,12.94
2018-09-02T00:49:14.535Z,12.41
2018-09-02T00:51:44.449Z,12.16
2018-09-02T00:54:14.456Z,12.02
2018-09-02T00:56:44.472Z,12.07
2018-09-02T00:59:14.382Z,12.07
2018-09-02T01:01:44.269Z,11.90
2018-09-02T01:04:14.183Z,11.93
2018-09-02T01:06:44.514Z,11.61
2018-09-02T01:09:14.484Z,11.99
2018-09-02T01:11:44.426Z,12.21
2018-09-02T01:14:14.818Z,12.37
2018-09-02T01:16:45.016Z,12.68
2018-09-02T01:19:15.000Z,12.71
2018-09-02T01:21:45.689Z,12.57
2018-09-02T01:24:15.653Z,12.77
2018-09-02T01:26:45.641Z,12.74
2018-09-02T01:29:16.272Z,12.39
2018-09-02T01:31:46.187Z,12.00
2018-09-02T01:34:16.160Z,11.81
2018-09-02T01:36:46.216Z,11.60
2018-09-02T01:39:16.151Z,11.48
2018-09-02T01:41:46.625Z,11.51
2018-09-02T01:44:16.652Z,11.29
2018-09-02T01:46:46.692Z,11.47
2018-09-02T01:49:16.996Z,11.61
2018-09-02T01:51:47.129Z,11.63
2018-09-02T01:54:17.379Z,11.89
2018-09-02T01:56:47.390Z,12.04
2018-09-02T01:59:17.397Z,12.42
2018-09-02T02:01:47.458Z,12.64
2018-09-02T02:04:17.428Z,12.62
2018-09-02T02:06:47.503Z,11.87
2018-09-02T02:09:17.770Z,11.70
2018-09-02T02:11:47.756Z,11.69
2018-09-02T02:14:17.854Z,11.49
2018-09-02T02:16:47.916Z,11.40
2018-09-02T02:19:17.814Z,11.43
2018-09-02T02:21:47.864Z,11.63
2018-09-02T02:24:18.146Z,11.80
2018-09-02T02:26:48.105Z,11.79
2018-09-02T02:29:18.114Z,11.91
2018-09-02T02:31:48.175Z,11.59
2018-09-02T02:34:18.094Z,11.28
2018-09-02T02:36:48.349Z,11.40
2018-09-02T02:39:18.800Z,11.39
2018-09-02T02:41:49.018Z,11.47
2018-09-02T02:44:19.062Z,11.29
2018-09-02T02:46:49.076Z,11.26
2018-09-02T02:49:19.040Z,11.17
2018-09-02T02:51:49.001Z,10.95
2018-09-02T02:54:18.986Z,11.21
2018-09-02T02:56:49.139Z,11.50
2018-09-02T02:59:19.110Z,11.79
2018-09-02T03:01:49.506Z,11.84
2018-09-02T03:04:19.740Z,11.56
2018-09-02T03:06:50.098Z,11.51
2018-09-02T03:09:20.110Z,11.41
2018-09-02T03:11:50.547Z,11.19
2018-09-02T03:14:20.565Z,11.20
2018-09-02T03:16:50.545Z,10.92
2018-09-02T03:19:20.599Z,10.83
2018-09-02T03:21:50.599Z,11.00
2018-09-02T03:24:20.716Z,11.17
2018-09-02T03:26:50.808Z,11.21
2018-09-02T03:29:21.200Z,11.44
2018-09-02T03:31:51.220Z,11.22
2018-09-02T03:34:21.729Z,11.30
2018-09-02T03:36:52.289Z,11.22
2018-09-02T03:39:22.350Z,10.92
2018-09-02T03:41:52.660Z,10.99
2018-09-02T03:44:22.872Z,10.92
2018-09-02T03:46:52.863Z,10.83
2018-09-02T03:49:23.273Z,11.01
2018-09-02T03:51:53.291Z,11.04
2018-09-02T03:54:23.350Z,10.65
2018-09-02T03:56:53.475Z,10.60
2018-09-02T03:59:23.588Z,10.60
2018-09-02T04:01:53.609Z,10.44
2018-09-02T04:04:23.930Z,10.28
2018-09-02T04:06:53.963Z,10.81
2018-09-02T04:09:24.402Z,10.85
2018-09-02T04:11:54.535Z,11.05
2018-09-02T04:14:24.589Z,11.18
2018-09-02T04:16:54.656Z,11.19
2018-09-02T04:19:24.672Z,10.86
2018-09-02T04:21:55.050Z,11.14
2018-09-02T04:24:25.114Z,10.68
2018-09-02T04:26:55.227Z,10.38
2018-09-02T04:29:25.278Z,10.38
2018-09-02T04:31:55.311Z,10.34
2018-09-02T04:34:31.406Z,10.27
2018-09-02T04:37:01.562Z,10.66
2018-09-02T04:39:31.375Z,11.09
2018-09-02T04:42:01.111Z,11.19
2018-09-02T04:47:31.273Z,10.35
2018-09-02T04:50:15.718Z,10.48
2018-09-02T04:52:45.858Z,10.16
2018-09-02T04:55:15.936Z,10.09
2018-09-02T04:57:47.859Z,10.15
2018-09-02T05:00:18.825Z,10.39
2018-09-02T05:02:49.273Z,10.28
2018-09-02T05:05:20.185Z,10.24
2018-09-02T05:07:50.256Z,10.16
2018-09-02T05:10:20.090Z,10.08
2018-09-02T05:12:49.899Z,10.26
2018-09-02T05:15:19.723Z,9.96
2018-09-02T05:17:49.950Z,10.39
2018-09-02T05:20:28.304Z,10.32
2018-09-02T05:22:58.227Z,10.64
2018-09-02T05:25:28.109Z,10.91
2018-09-02T05:27:58.806Z,10.90
2018-09-02T05:30:51.532Z,11.00
2018-09-02T05:33:22.645Z,10.47
2018-09-02T05:35:53.667Z,10.61
2018-09-02T05:38:23.725Z,10.32
2018-09-02T05:40:53.808Z,10.46
2018-09-02T05:43:36.685Z,10.54
2018-09-02T05:46:07.221Z,10.51
2018-09-02T05:48:37.821Z,10.61
2018-09-02T05:51:07.782Z,10.76
2018-09-02T05:53:38.012Z,10.78
2018-09-02T05:56:14.813Z,10.86
2018-09-02T05:58:51.424Z,10.99
2018-09-02T06:01:21.523Z,11.06
2018-09-02T06:03:52.339Z,11.14
2018-09-02T06:06:25.979Z,11.24
2018-09-02T06:09:03.116Z,11.38
2018-09-02T06:11:41.258Z,11.19
2018-09-02T06:14:15.782Z,11.23
2018-09-02T06:16:46.636Z,11.22
2018-09-02T06:19:16.693Z,11.16
2018-09-02T06:21:46.743Z,11.28
2018-09-02T06:24:24.364Z,11.19
2018-09-02T06:26:54.217Z,11.19
2018-09-02T06:29:24.351Z,11.24
2018-09-02T06:31:54.253Z,11.29
2018-09-02T06:34:24.564Z,11.28
2018-09-02T06:37:02.077Z,11.38
2018-09-02T06:39:40.923Z,11.37
2018-09-02T06:42:10.902Z,11.40
2018-09-02T06:44:41.012Z,11.54
2018-09-02T06:47:11.973Z,11.58
2018-09-02T06:49:42.894Z,11.73
2018-09-02T06:52:13.083Z,11.82
2018-09-02T06:54:43.298Z,11.86
2018-09-02T06:57:13.772Z,12.01
2018-09-02T06:59:43.859Z,12.06
2018-09-02T07:02:13.888Z,12.05
2018-09-02T07:04:43.794Z,12.18
2018-09-02T07:07:14.469Z,12.37
2018-09-02T07:09:44.726Z,12.55
2018-09-02T07:12:14.841Z,12.66
2018-09-02T07:14:45.078Z,12.74
2018-09-02T07:17:15.125Z,12.79
2018-09-02T07:19:45.174Z,12.71
2018-09-02T07:22:15.238Z,12.79
2018-09-02T07:24:45.503Z,12.98
2018-09-02T07:27:15.573Z,12.97
2018-09-02T07:29:47.029Z,13.07
2018-09-02T07:32:17.071Z,13.19
2018-09-02T07:34:47.120Z,13.29
2018-09-02T07:37:23.238Z,13.45
2018-09-02T07:39:55.731Z,13.38
2018-09-02T07:42:25.721Z,13.57
2018-09-02T07:44:55.817Z,13.69
2018-09-02T07:47:26.264Z,13.79
2018-09-02T07:49:56.242Z,13.95
2018-09-02T07:52:26.322Z,13.80
2018-09-02T07:54:56.363Z,13.97
2018-09-02T07:57:27.553Z,14.22
2018-09-02T07:59:57.547Z,14.30
2018-09-02T08:02:27.618Z,14.25
2018-09-02T08:04:57.606Z,14.29
2018-09-02T08:07:27.663Z,14.50
2018-09-02T08:09:57.635Z,14.42
2018-09-02T08:12:27.670Z,14.75
2018-09-02T08:14:57.545Z,14.52
2018-09-02T08:17:27.520Z,14.93
2018-09-02T08:20:03.157Z,15.20
2018-09-02T08:22:34.525Z,15.14
2018-09-02T08:25:16.280Z,15.39
2018-09-02T08:27:47.292Z,15.17
2018-09-02T08:30:17.194Z,15.52
2018-09-02T08:32:47.120Z,15.77
2018-09-02T08:35:17.088Z,15.75
2018-09-02T08:37:49.856Z,15.82
2018-09-02T08:40:19.866Z,15.93
2018-09-02T08:42:49.772Z,16.26
2018-09-02T08:45:19.678Z,16.38
2018-09-02T08:47:49.605Z,16.33
2018-09-02T08:50:19.585Z,16.58
2018-09-02T08:52:49.497Z,16.53
2018-09-02T08:55:19.357Z,16.49
2018-09-02T08:57:49.267Z,16.50
2018-09-02T09:00:21.418Z,16.94
2018-09-02T09:02:53.647Z,17.07
2018-09-02T09:05:23.975Z,16.76
2018-09-02T09:07:54.097Z,17.04
2018-09-02T09:10:25.859Z,17.26
2018-09-02T09:12:55.752Z,17.26
2018-09-02T09:15:29.040Z,17.35
2018-09-02T09:17:58.989Z,17.25
2018-09-02T09:20:28.775Z,17.54
2018-09-02T09:22:58.723Z,17.62
2018-09-02T09:25:28.641Z,17.51
2018-09-02T09:27:58.512Z,17.73
2018-09-02T09:30:28.397Z,18.02
2018-09-02T09:32:58.566Z,18.05
2018-09-02T09:35:29.268Z,18.05
2018-09-02T09:37:59.229Z,18.22
2018-09-02T09:40:29.208Z,18.38
2018-09-02T09:43:00.404Z,18.48
2018-09-02T09:45:31.889Z,18.04
2018-09-02T09:48:01.757Z,18.37
2018-09-02T09:50:32.217Z,18.63
2018-09-02T09:53:03.204Z,18.56
2018-09-02T09:55:33.346Z,18.66
2018-09-02T09:58:03.335Z,18.63
2018-09-02T10:00:38.529Z,18.77
2018-09-02T10:03:08.443Z,18.78
2018-09-02T10:05:38.322Z,18.99
2018-09-02T10:08:08.232Z,19.03
2018-09-02T10:10:38.135Z,18.99
2018-09-02T10:13:08.062Z,18.98
2018-09-02T10:15:38.420Z,19.22
2018-09-02T10:18:08.447Z,19.35
2018-09-02T10:20:38.267Z,19.31
2018-09-02T10:23:08.023Z,19.64
2018-09-02T10:25:43.896Z,19.49
2018-09-02T10:28:13.917Z,19.58
2018-09-02T10:30:43.838Z,19.59
2018-09-02T10:33:13.788Z,19.81
2018-09-02T10:35:43.592Z,19.97
2018-09-02T10:38:13.528Z,19.77
2018-09-02T10:40:43.512Z,20.04
2018-09-02T10:43:13.360Z,20.13
2018-09-02T10:45:43.210Z,20.07
2018-09-02T10:48:13.251Z,20.36
2018-09-02T10:50:43.078Z,20.26
2018-09-02T10:56:08.724Z,20.25
2018-09-02T10:58:38.652Z,20.38
2018-09-02T11:01:08.839Z,20.47
2018-09-02T11:03:38.655Z,20.58
2018-09-02T11:06:08.455Z,20.68
2018-09-02T11:08:38.416Z,20.50
2018-09-02T11:11:08.376Z,20.53
2018-09-02T11:13:38.381Z,20.55
2018-09-02T11:16:08.306Z,20.51
2018-09-02T11:18:38.258Z,20.71
2018-09-02T11:21:08.184Z,20.63
2018-09-02T11:23:38.165Z,20.76
2018-09-02T11:26:08.858Z,20.84
2018-09-02T11:28:38.931Z,20.81
2018-09-02T11:31:08.753Z,20.88
2018-09-02T11:33:38.511Z,21.05
2018-09-02T11:36:08.003Z,21.18
2018-09-02T11:38:37.977Z,21.19
2018-09-02T11:41:07.909Z,21.36
2018-09-02T11:43:37.893Z,21.42
2018-09-02T11:46:08.009Z,21.40
2018-09-02T11:48:37.821Z,21.38
2018-09-02T11:51:08.072Z,21.47
2018-09-02T11:53:38.225Z,21.62
2018-09-02T11:56:08.189Z,21.55
2018-09-02T11:58:38.063Z,21.68
2018-09-02T12:01:08.006Z,21.76
2018-09-02T12:03:38.181Z,21.91
2018-09-02T12:06:08.073Z,21.72
2018-09-02T12:08:37.973Z,21.89
2018-09-02T12:11:07.822Z,21.82
2018-09-02T12:13:37.750Z,21.78
2018-09-02T12:16:07.611Z,22.17
2018-09-02T12:18:37.505Z,22.05
2018-09-02T12:21:07.495Z,22.19
2018-09-02T12:23:37.320Z,22.05
2018-09-02T12:26:07.255Z,21.97
2018-09-02T12:28:37.070Z,22.13
2018-09-02T12:31:06.868Z,22.18
2018-09-02T12:33:36.911Z,22.59
2018-09-02T12:36:08.471Z,22.22
2018-09-02T12:38:38.700Z,22.59
2018-09-02T12:41:08.646Z,22.53
2018-09-02T12:43:38.598Z,22.39
2018-09-02T12:46:08.320Z,22.49
2018-09-02T12:48:37.992Z,22.57
2018-09-02T12:51:07.782Z,22.66
2018-09-02T12:53:37.410Z,22.30
2018-09-02T12:56:07.075Z,22.44
2018-09-02T12:58:36.934Z,22.90
2018-09-02T13:01:06.664Z,22.71
2018-09-02T13:03:36.714Z,22.66
2018-09-02T13:06:06.350Z,22.58
2018-09-02T13:08:36.094Z,22.64
2018-09-02T13:11:05.835Z,22.61
2018-09-02T13:13:35.468Z,22.89
2018-09-02T13:16:05.179Z,22.85
2018-09-02T13:18:34.878Z,22.72
2018-09-02T13:21:05.433Z,22.56
2018-09-02T13:23:35.064Z,22.96
2018-09-02T13:26:04.717Z,22.97
2018-09-02T13:28:34.363Z,22.90
2018-09-02T13:31:03.990Z,22.97
2018-09-02T13:33:33.667Z,22.94
2018-09-02T13:36:03.777Z,23.05
2018-09-02T13:38:33.727Z,23.02
2018-09-02T13:41:03.320Z,23.17
2018-09-02T13:43:32.912Z,22.98
2018-09-02T13:46:02.510Z,23.05
2018-09-02T13:48:32.247Z,22.84
2018-09-02T13:51:01.808Z,23.06
2018-09-02T13:53:31.471Z,23.15
2018-09-02T13:56:01.110Z,22.97
2018-09-02T13:58:30.802Z,23.23
2018-09-02T14:01:00.488Z,23.12
2018-09-02T14:03:30.067Z,23.08
2018-09-02T14:05:59.734Z,23.17
2018-09-02T14:08:29.358Z,23.42
2018-09-02T14:10:58.999Z,23.11
2018-09-02T14:13:28.624Z,23.03
2018-09-02T14:15:58.316Z,23.26
2018-09-02T14:18:27.988Z,23.23
2018-09-02T14:20:57.676Z,23.33
2018-09-02T14:23:27.345Z,23.28
2018-09-02T14:25:57.027Z,23.36
2018-09-02T14:28:26.641Z,23.12
2018-09-02T14:30:56.322Z,22.99
2018-09-02T14:33:25.963Z,23.19
2018-09-02T14:35:55.736Z,23.03
2018-09-02T14:38:25.366Z,23.05
2018-09-02T14:40:55.033Z,23.15
2018-09-02T14:43:24.711Z,23.24
2018-09-02T14:45:54.362Z,23.25
2018-09-02T14:48:23.968Z,23.35
2018-09-02T14:50:53.640Z,23.44
2018-09-02T14:53:23.234Z,23.44
2018-09-02T14:55:52.856Z,23.55
2018-09-02T14:58:22.570Z,23.42
2018-09-02T15:00:52.246Z,23.47
2018-09-02T15:03:21.889Z,23.52
2018-09-02T15:05:51.603Z,23.49
2018-09-02T15:08:21.270Z,23.69
2018-09-02T15:10:50.990Z,23.68
2018-09-02T15:13:20.866Z,23.65
2018-09-02T15:15:50.473Z,23.60
2018-09-02T15:18:20.176Z,23.64
2018-09-02T15:20:49.809Z,23.52
2018-09-02T15:23:19.457Z,23.67
2018-09-02T15:25:49.354Z,23.50
2018-09-02T15:28:19.487Z,23.49
2018-09-02T15:30:49.131Z,23.51
2018-09-02T15:33:18.804Z,23.26
2018-09-02T15:35:48.731Z,23.38
2018-09-02T15:38:18.400Z,23.45
2018-09-02T15:40:48.077Z,23.41
2018-09-02T15:43:17.812Z,23.54
2018-09-02T15:45:47.498Z,23.58
2018-09-02T15:48:17.143Z,23.51
2018-09-02T15:50:46.784Z,23.36
2018-09-02T15:53:16.474Z,23.48
2018-09-02T15:55:46.485Z,23.61
2018-09-02T15:58:17.055Z,23.56
2018-09-02T16:00:46.994Z,23.45
2018-09-02T16:03:16.728Z,23.51
2018-09-02T16:05:46.424Z,23.38
2018-09-02T16:08:16.083Z,23.28
2018-09-02T16:10:45.685Z,23.33
2018-09-02T16:13:15.288Z,23.25
2018-09-02T16:15:44.923Z,22.97
2018-09-02T16:18:14.556Z,22.90
2018-09-02T16:20:44.208Z,22.92
2018-09-02T16:23:13.839Z,22.74
2018-09-02T16:25:43.471Z,22.69
2018-09-02T16:28:25.746Z,22.59
2018-09-02T16:30:55.400Z,22.56
2018-09-02T16:33:25.060Z,22.58
2018-09-02T16:35:54.749Z,22.43
2018-09-02T16:38:41.974Z,22.42
2018-09-02T16:41:11.896Z,22.48
2018-09-02T16:43:41.451Z,22.32
2018-09-02T16:46:11.110Z,22.16
2018-09-02T16:48:41.021Z,22.21
2018-09-02T16:51:10.909Z,22.00
2018-09-02T16:53:40.582Z,21.91
2018-09-02T16:56:10.248Z,21.89
2018-09-02T16:58:39.978Z,21.92
2018-09-02T17:01:09.569Z,21.85
2018-09-02T17:03:42.290Z,21.93
2018-09-02T17:06:11.964Z,21.83
2018-09-02T17:08:41.560Z,21.82
2018-09-02T17:11:11.194Z,21.79
2018-09-02T17:13:40.859Z,21.73
2018-09-02T17:16:10.481Z,21.70
2018-09-02T17:18:40.191Z,21.68
2018-09-02T17:21:20.540Z,21.58
2018-09-02T17:23:50.925Z,21.60
2018-09-02T17:26:20.562Z,21.65
2018-09-02T17:28:51.191Z,21.55
2018-09-02T17:31:21.888Z,21.49
2018-09-02T17:33:53.551Z,21.59
2018-09-02T17:36:28.027Z,21.43
2018-09-02T17:38:58.115Z,21.61
2018-09-02T17:41:28.072Z,21.38
2018-09-02T17:44:03.242Z,21.35
2018-09-02T17:46:33.017Z,21.25
2018-09-02T17:49:02.887Z,21.21
2018-09-02T17:51:32.858Z,21.16
2018-09-02T17:54:02.462Z,21.18
2018-09-02T17:56:32.159Z,21.14
2018-09-02T17:59:01.929Z,21.22
2018-09-02T18:01:31.664Z,21.03
2018-09-02T18:04:01.521Z,21.03
2018-09-02T18:06:31.167Z,21.01
2018-09-02T18:09:00.818Z,21.08
2018-09-02T18:11:30.444Z,20.93
2018-09-02T18:14:00.103Z,20.85
2018-09-02T18:16:30.168Z,20.85
2018-09-02T18:18:59.859Z,20.87
2018-09-02T18:21:29.553Z,20.82
2018-09-02T18:23:59.356Z,20.83
2018-09-02T18:26:29.096Z,20.75
2018-09-02T18:28:58.815Z,20.78
2018-09-02T18:31:28.496Z,20.76
2018-09-02T18:33:58.985Z,20.72
2018-09-02T18:36:43.004Z,20.69
2018-09-02T18:39:15.863Z,20.68
2018-09-02T18:41:45.691Z,20.72
2018-09-02T18:44:25.245Z,20.71
2018-09-02T18:46:57.061Z,20.67
2018-09-02T18:49:28.430Z,20.63
2018-09-02T18:51:58.557Z,20.53
2018-09-02T18:54:30.405Z,20.44
2018-09-02T18:57:00.210Z,20.46
2018-09-02T18:59:29.921Z,20.44
2018-09-02T19:01:59.679Z,20.35
2018-09-02T19:04:30.911Z,20.42
2018-09-02T19:07:06.688Z,20.40
2018-09-02T19:09:36.582Z,20.34
2018-09-02T19:12:06.863Z,20.39
2018-09-02T19:14:36.844Z,20.32
2018-09-02T19:17:06.748Z,20.26
2018-09-02T19:19:36.491Z,20.27
2018-09-02T19:22:06.690Z,20.27
2018-09-02T19:24:36.447Z,20.31
2018-09-02T19:27:06.281Z,20.24
2018-09-02T19:29:36.366Z,20.30
2018-09-02T19:32:06.253Z,20.29
2018-09-02T19:34:35.973Z,20.22
2018-09-02T19:37:05.786Z,20.12
2018-09-02T19:39:35.499Z,20.23
2018-09-02T19:42:05.315Z,20.10
2018-09-02T19:44:35.031Z,20.22
2018-09-02T19:47:04.958Z,20.14
2018-09-02T19:49:34.865Z,20.18
2018-09-02T19:52:05.169Z,20.07
2018-09-02T19:54:34.851Z,20.12
2018-09-02T19:57:04.628Z,20.02
2018-09-02T19:59:34.434Z,20.03
2018-09-02T20:02:04.483Z,20.06
2018-09-02T20:04:46.955Z,20.03
2018-09-02T20:07:16.776Z,20.01
2018-09-02T20:09:46.407Z,20.02
2018-09-02T20:12:16.191Z,19.89
2018-09-02T20:14:45.941Z,19.99
2018-09-02T20:17:15.661Z,19.97
2018-09-02T20:19:46.263Z,19.84
2018-09-02T20:22:15.939Z,19.97
2018-09-02T20:24:45.741Z,19.81
2018-09-02T20:27:16.264Z,19.95
2018-09-02T20:29:46.032Z,19.87
2018-09-02T20:32:15.668Z,19.83
2018-09-02T20:34:45.346Z,19.73
2018-09-02T20:37:15.011Z,19.86
2018-09-02T20:39:45.432Z,19.83
2018-09-02T20:42:15.358Z,19.71
2018-09-02T20:44:48.904Z,19.77
2018-09-02T20:47:18.998Z,19.69
2018-09-02T20:49:49.070Z,19.64
2018-09-02T20:52:20.810Z,19.65
2018-09-02T20:54:51.015Z,19.67
2018-09-02T20:57:22.027Z,19.59
2018-09-02T20:59:51.974Z,19.58
2018-09-02T21:02:22.003Z,19.55
2018-09-02T21:04:51.746Z,19.55
2018-09-02T21:07:21.442Z,19.52
2018-09-02T21:09:51.431Z,19.49
2018-09-02T21:12:21.095Z,19.61
2018-09-02T21:14:50.925Z,19.52
2018-09-02T21:17:20.604Z,19.56
2018-09-02T21:20:12.461Z,19.48
2018-09-02T21:22:42.287Z,19.62
2018-09-02T21:25:12.218Z,19.45
2018-09-02T21:27:41.960Z,19.43
2018-09-02T21:30:11.623Z,19.44
2018-09-02T21:32:41.297Z,19.36
2018-09-02T21:35:16.903Z,19.47
2018-09-02T21:37:46.998Z,19.40
2018-09-02T21:40:17.097Z,19.41
2018-09-02T21:42:48.032Z,19.61
2018-09-02T21:45:17.739Z,19.40
2018-09-02T21:47:47.362Z,19.42
2018-09-02T21:50:17.600Z,19.33
2018-09-02T21:52:47.667Z,19.41
2018-09-02T21:55:17.595Z,19.32
2018-09-02T21:57:47.445Z,19.30
2018-09-02T22:00:18.033Z,19.26
2018-09-02T22:02:47.666Z,19.23
2018-09-02T22:05:18.327Z,19.28
2018-09-02T22:07:48.176Z,19.34
2018-09-02T22:10:18.036Z,19.21
2018-09-02T22:13:19.363Z,19.25
2018-09-02T22:16:08.831Z,19.17
2018-09-02T22:28:14.910Z,19.17
2018-09-02T22:30:44.751Z,19.14
2018-09-02T22:33:15.063Z,19.07
2018-09-02T22:35:45.632Z,19.12
2018-09-02T22:41:40.149Z,19.11
2018-09-02T22:44:09.959Z,19.20
2018-09-02T22:46:39.727Z,19.20
2018-09-02T22:49:09.428Z,19.10
2018-09-02T22:51:40.346Z,19.20
2018-09-02T22:54:11.025Z,19.26
2018-09-02T22:56:41.725Z,19.10
2018-09-02T22:59:11.849Z,19.15
2018-09-02T23:01:41.978Z,19.18
2018-09-02T23:04:12.148Z,19.14
2018-09-02T23:06:41.923Z,19.16
2018-09-02T23:09:12.316Z,19.17
2018-09-02T23:12:06.612Z,19.18
2018-09-02T23:14:36.755Z,19.22
2018-09-02T23:17:06.475Z,19.06
2018-09-02T23:20:21.516Z,18.99
2018-09-02T23:23:09.002Z,19.02
2018-09-02T23:25:38.913Z,19.16
2018-09-02T23:28:09.769Z,19.11
2018-09-02T23:31:08.320Z,19.10
2018-09-02T23:33:38.402Z,18.96
2018-09-02T23:36:34.889Z,18.95
2018-09-02T23:39:06.590Z,19.04
2018-09-02T23:41:52.994Z,19.02
2018-09-02T23:44:22.800Z,19.07
2018-09-02T23:46:52.641Z,19.14
2018-09-02T23:49:37.162Z,19.14
2018-09-02T23:52:07.391Z,19.30
2018-09-02T23:55:07.761Z,19.40
2018-09-02T23:57:37.615Z,19.10
